createdAt,value
2023-04-02T00:00:09.460Z,959.95
2023-04-02T00:01:09.417Z,959.96
2023-04-02T00:02:09.459Z,959.92
2023-04-02T00:03:09.380Z,959.93
2023-04-02T00:04:09.432Z,959.92
2023-04-02T00:05:09.270Z,959.95
2023-04-02T00:06:09.296Z,959.94
2023-04-02T00:07:09.241Z,959.95
2023-04-02T00:08:09.326Z,960.00
2023-04-02T00:09:09.223Z,959.98
2023-04-02T00:10:09.299Z,960.00
2023-04-02T00:11:09.263Z,959.98
2023-04-02T00:12:09.327Z,960.06
2023-04-02T00:13:09.245Z,960.03
2023-04-02T00:14:09.412Z,960.04
2023-04-02T00:15:09.444Z,960.05
2023-04-02T00:16:09.171Z,960.04
2023-04-02T00:17:09.163Z,960.03
2023-04-02T00:18:09.272Z,960.00
2023-04-02T00:19:09.078Z,960.04
2023-04-02T00:20:09.268Z,960.04
2023-04-02T00:21:09.103Z,960.01
2023-04-02T00:22:09.187Z,960.05
2023-04-02T00:23:09.075Z,960.02
2023-04-02T00:24:09.049Z,960.02
2023-04-02T00:25:09.112Z,960.01
2023-04-02T00:26:09.042Z,960.03
2023-04-02T00:27:09.127Z,960.02
2023-04-02T00:28:08.980Z,960.03
2023-04-02T00:29:09.051Z,960.09
2023-04-02T00:30:08.993Z,960.02
2023-04-02T00:31:09.092Z,960.06
2023-04-02T00:32:09.029Z,960.05
2023-04-02T00:33:09.101Z,960.05
2023-04-02T00:34:08.952Z,960.03
2023-04-02T00:35:09.090Z,960.06
2023-04-02T00:36:08.905Z,960.06
2023-04-02T00:37:09.057Z,960.08
2023-04-02T00:38:08.975Z,960.07
2023-04-02T00:39:09.052Z,960.05
2023-04-02T00:40:08.846Z,960.11
2023-04-02T00:41:09.033Z,960.13
2023-04-02T00:42:08.833Z,960.12
2023-04-02T00:43:08.832Z,960.14
2023-04-02T00:44:08.855Z,960.14
2023-04-02T00:45:08.747Z,960.13
2023-04-02T00:46:09.007Z,960.14
2023-04-02T00:47:08.740Z,960.17
2023-04-02T00:48:08.793Z,960.19
2023-04-02T00:49:08.696Z,960.18
2023-04-02T00:50:08.798Z,960.17
2023-04-02T00:51:08.690Z,960.17
2023-04-02T00:52:08.866Z,960.18
2023-04-02T00:53:08.684Z,960.19
2023-04-02T00:54:08.732Z,960.19
2023-04-02T00:55:08.616Z,960.16
2023-04-02T00:56:08.733Z,960.16
2023-04-02T00:57:08.647Z,960.15
2023-04-02T00:58:08.753Z,960.15
2023-04-02T00:59:08.613Z,960.16
2023-04-02T01:00:08.671Z,960.19
2023-04-02T01:01:08.605Z,960.20
2023-04-02T01:02:08.679Z,960.22
2023-04-02T01:03:08.560Z,960.24
2023-04-02T01:04:08.734Z,960.24
2023-04-02T01:05:08.522Z,960.24
2023-04-02T01:06:08.757Z,960.22
2023-04-02T01:07:08.473Z,960.22
2023-04-02T01:08:08.639Z,960.27
2023-04-02T01:09:08.473Z,960.30
2023-04-02T01:10:08.595Z,960.32
2023-04-02T01:11:08.445Z,960.30
2023-04-02T01:12:08.543Z,960.29
2023-04-02T01:13:08.406Z,960.32
2023-04-02T01:14:08.444Z,960.29
2023-04-02T01:15:08.455Z,960.32
2023-04-02T01:16:08.443Z,960.31
2023-04-02T01:17:08.465Z,960.30
2023-04-02T01:18:19.234Z,960.31
2023-04-02T01:19:08.321Z,960.29
2023-04-02T01:20:08.411Z,960.29
2023-04-02T01:21:08.304Z,960.38
2023-04-02T01:22:08.453Z,960.32
2023-04-02T01:23:08.267Z,960.34
2023-04-02T01:24:08.538Z,960.35
2023-04-02T01:25:08.300Z,960.34
2023-04-02T01:26:08.276Z,960.38
2023-04-02T01:27:08.441Z,960.35
2023-04-02T01:28:08.227Z,960.36
2023-04-02T01:29:08.229Z,960.36
2023-04-02T01:30:08.194Z,960.34
2023-04-02T01:31:08.318Z,960.36
2023-04-02T01:32:08.172Z,960.35
2023-04-02T01:33:08.344Z,960.35
2023-04-02T01:34:08.147Z,960.35
2023-04-02T01:35:08.279Z,960.36
2023-04-02T01:36:08.182Z,960.35
2023-04-02T01:37:08.206Z,960.35
2023-04-02T01:38:08.366Z,960.32
2023-04-02T01:39:08.198Z,960.34
2023-04-02T01:40:08.102Z,960.33
2023-04-02T01:41:08.156Z,960.34
2023-04-02T01:42:08.058Z,960.36
2023-04-02T01:43:08.263Z,960.35
2023-04-02T01:44:08.024Z,960.35
2023-04-02T01:45:08.138Z,960.37
2023-04-02T01:46:08.006Z,960.35
2023-04-02T01:47:08.049Z,960.39
2023-04-02T01:48:08.022Z,960.40
2023-04-02T01:49:08.227Z,960.42
2023-04-02T01:50:07.962Z,960.46
2023-04-02T01:51:07.980Z,960.48
2023-04-02T01:52:07.934Z,960.47
2023-04-02T01:53:08.090Z,960.48
2023-04-02T01:54:07.926Z,960.49
2023-04-02T01:55:08.001Z,960.50
2023-04-02T01:56:07.887Z,960.51
2023-04-02T01:57:07.958Z,960.49
2023-04-02T01:58:07.919Z,960.51
2023-04-02T01:59:07.931Z,960.51
2023-04-02T02:00:07.839Z,960.51
2023-04-02T02:01:07.912Z,960.54
2023-04-02T02:02:07.846Z,960.51
2023-04-02T02:03:07.912Z,960.51
2023-04-02T02:04:07.812Z,960.51
2023-04-02T02:05:07.862Z,960.54
2023-04-02T02:06:07.881Z,960.55
2023-04-02T02:07:07.715Z,960.51
2023-04-02T02:08:07.801Z,960.51
2023-04-02T02:09:07.735Z,960.51
2023-04-02T02:10:07.835Z,960.53
2023-04-02T02:11:07.707Z,960.52
2023-04-02T02:12:07.835Z,960.58
2023-04-02T02:13:07.646Z,960.56
2023-04-02T02:14:07.742Z,960.56
2023-04-02T02:15:07.653Z,960.58
2023-04-02T02:16:07.806Z,960.56
2023-04-02T02:17:07.579Z,960.56
2023-04-02T02:18:07.681Z,960.58
2023-04-02T02:19:07.556Z,960.60
2023-04-02T02:20:07.733Z,960.60
2023-04-02T02:21:07.530Z,960.61
2023-04-02T02:22:07.639Z,960.63
2023-04-02T02:23:07.513Z,960.60
2023-04-02T02:24:07.628Z,960.59
2023-04-02T02:25:07.502Z,960.60
2023-04-02T02:26:07.676Z,960.60
2023-04-02T02:27:07.458Z,960.60
2023-04-02T02:28:07.551Z,960.63
2023-04-02T02:29:07.453Z,960.62
2023-04-02T02:30:07.696Z,960.61
2023-04-02T02:31:07.402Z,960.62
2023-04-02T02:32:07.603Z,960.62
2023-04-02T02:33:07.406Z,960.67
2023-04-02T02:34:07.582Z,960.63
2023-04-02T02:35:07.364Z,960.66
2023-04-02T02:36:07.547Z,960.68
2023-04-02T02:37:07.346Z,960.66
2023-04-02T02:38:07.497Z,960.68
2023-04-02T02:39:07.316Z,960.65
2023-04-02T02:40:07.415Z,960.67
2023-04-02T02:41:07.304Z,960.64
2023-04-02T02:42:07.368Z,960.64
2023-04-02T02:43:07.294Z,960.68
2023-04-02T02:44:07.340Z,960.69
2023-04-02T02:45:07.225Z,960.66
2023-04-02T02:46:07.414Z,960.70
2023-04-02T02:47:07.250Z,960.74
2023-04-02T02:48:07.290Z,960.73
2023-04-02T02:49:07.266Z,960.72
2023-04-02T02:50:07.246Z,960.74
2023-04-02T02:51:07.258Z,960.73
2023-04-02T02:52:07.228Z,960.76
2023-04-02T02:53:07.297Z,960.79
2023-04-02T02:54:07.152Z,960.78
2023-04-02T02:55:08.017Z,960.79
2023-04-02T02:56:07.123Z,960.76
2023-04-02T02:57:07.297Z,960.82
2023-04-02T02:58:07.131Z,960.79
2023-04-02T02:59:07.121Z,960.82
2023-04-02T03:00:07.075Z,960.85
2023-04-02T03:01:07.159Z,960.84
2023-04-02T03:02:07.223Z,960.83
2023-04-02T03:03:13.244Z,960.86
2023-04-02T03:04:07.139Z,960.90
2023-04-02T03:05:06.974Z,960.87
2023-04-02T03:06:07.051Z,960.92
2023-04-02T03:07:06.955Z,960.90
2023-04-02T03:08:07.124Z,960.94
2023-04-02T03:09:06.930Z,960.97
2023-04-02T03:10:06.983Z,960.96
2023-04-02T03:11:06.899Z,960.95
2023-04-02T03:12:06.993Z,960.97
2023-04-02T03:13:07.015Z,960.99
2023-04-02T03:14:06.906Z,961.04
2023-04-02T03:15:06.917Z,961.01
2023-04-02T03:16:06.925Z,961.02
2023-04-02T03:17:06.900Z,960.98
2023-04-02T03:18:06.982Z,960.99
2023-04-02T03:19:06.802Z,961.04
2023-04-02T03:20:06.951Z,961.05
2023-04-02T03:21:06.798Z,961.05
2023-04-02T03:22:06.848Z,961.07
2023-04-02T03:23:06.845Z,961.07
2023-04-02T03:24:06.781Z,961.09
2023-04-02T03:25:06.760Z,961.09
2023-04-02T03:26:06.764Z,961.09
2023-04-02T03:27:06.746Z,961.10
2023-04-02T03:28:06.813Z,961.13
2023-04-02T03:29:06.712Z,961.11
2023-04-02T03:30:06.917Z,961.12
2023-04-02T03:31:06.685Z,961.09
2023-04-02T03:32:06.710Z,961.13
2023-04-02T03:33:06.657Z,961.10
2023-04-02T03:34:06.762Z,961.14
2023-04-02T03:35:06.621Z,961.14
2023-04-02T03:36:06.661Z,961.15
2023-04-02T03:37:06.577Z,961.13
2023-04-02T03:38:06.761Z,961.13
2023-04-02T03:39:06.590Z,961.15
2023-04-02T03:40:06.625Z,961.16
2023-04-02T03:41:06.542Z,961.17
2023-04-02T03:42:06.570Z,961.16
2023-04-02T03:43:06.524Z,961.19
2023-04-02T03:44:06.700Z,961.22
2023-04-02T03:45:06.504Z,961.18
2023-04-02T03:46:06.556Z,961.22
2023-04-02T03:47:06.455Z,961.21
2023-04-02T03:48:06.520Z,961.24
2023-04-02T03:49:06.432Z,961.22
2023-04-02T03:50:06.552Z,961.26
2023-04-02T03:51:06.437Z,961.23
2023-04-02T03:52:06.420Z,961.26
2023-04-02T03:53:06.378Z,961.28
2023-04-02T03:54:06.462Z,961.32
2023-04-02T03:55:06.383Z,961.33
2023-04-02T03:56:06.481Z,961.35
2023-04-02T03:57:06.376Z,961.35
2023-04-02T03:58:06.388Z,961.37
2023-04-02T03:59:06.344Z,961.38
2023-04-02T04:00:06.506Z,961.39
2023-04-02T04:01:06.309Z,961.38
2023-04-02T04:02:06.358Z,961.38
2023-04-02T04:03:06.290Z,961.43
2023-04-02T04:04:06.352Z,961.42
2023-04-02T04:05:06.223Z,961.45
2023-04-02T04:06:06.351Z,961.46
2023-04-02T04:07:06.226Z,961.45
2023-04-02T04:08:06.313Z,961.47
2023-04-02T04:09:06.240Z,961.52
2023-04-02T04:10:06.195Z,961.53
2023-04-02T04:11:06.364Z,961.52
2023-04-02T04:12:06.187Z,961.52
2023-04-02T04:13:06.161Z,961.52
2023-04-02T04:14:06.174Z,961.55
2023-04-02T04:15:06.102Z,961.56
2023-04-02T04:16:06.314Z,961.56
2023-04-02T04:17:06.116Z,961.57
2023-04-02T04:18:06.161Z,961.57
2023-04-02T04:19:06.053Z,961.60
2023-04-02T04:20:06.113Z,961.60
2023-04-02T04:21:06.024Z,961.63
2023-04-02T04:22:06.137Z,961.62
2023-04-02T04:23:06.022Z,961.65
2023-04-02T04:24:06.166Z,961.63
2023-04-02T04:25:05.998Z,961.66
2023-04-02T04:26:06.106Z,961.66
2023-04-02T04:27:05.974Z,961.67
2023-04-02T04:28:06.056Z,961.68
2023-04-02T04:29:05.988Z,961.66
2023-04-02T04:30:06.278Z,961.65
2023-04-02T04:31:05.943Z,961.71
2023-04-02T04:32:06.127Z,961.73
2023-04-02T04:33:05.961Z,961.70
2023-04-02T04:34:05.907Z,961.73
2023-04-02T04:35:05.965Z,961.74
2023-04-02T04:36:05.897Z,961.73
2023-04-02T04:37:05.932Z,961.77
2023-04-02T04:38:05.837Z,961.78
2023-04-02T04:39:05.852Z,961.79
2023-04-02T04:40:05.821Z,961.80
2023-04-02T04:41:05.886Z,961.83
2023-04-02T04:42:05.777Z,961.81
2023-04-02T04:43:05.981Z,961.81
2023-04-02T04:44:05.774Z,961.83
2023-04-02T04:45:05.802Z,961.84
2023-04-02T04:46:05.750Z,961.85
2023-04-02T04:47:05.802Z,961.87
2023-04-02T04:48:05.710Z,961.90
2023-04-02T04:49:05.777Z,961.89
2023-04-02T04:50:06.555Z,961.91
2023-04-02T04:51:05.679Z,961.92
2023-04-02T04:52:05.724Z,961.94
2023-04-02T04:53:05.687Z,961.94
2023-04-02T04:54:05.802Z,961.96
2023-04-02T04:55:05.810Z,962.00
2023-04-02T04:56:18.052Z,961.98
2023-04-02T04:57:05.626Z,961.98
2023-04-02T04:58:05.753Z,961.98
2023-04-02T04:59:05.575Z,961.99
2023-04-02T05:00:05.623Z,962.04
2023-04-02T05:01:05.561Z,962.03
2023-04-02T05:02:05.596Z,962.03
2023-04-02T05:03:05.569Z,962.05
2023-04-02T05:04:05.602Z,962.04
2023-04-02T05:05:05.569Z,962.07
2023-04-02T05:06:05.537Z,962.07
2023-04-02T05:07:05.501Z,962.05
2023-04-02T05:08:05.610Z,962.07
2023-04-02T05:09:05.445Z,962.10
2023-04-02T05:10:05.492Z,962.08
2023-04-02T05:11:05.437Z,962.09
2023-04-02T05:12:05.477Z,962.10
2023-04-02T05:13:05.410Z,962.13
2023-04-02T05:14:05.457Z,962.12
2023-04-02T05:15:05.402Z,962.11
2023-04-02T05:16:05.503Z,962.14
2023-04-02T05:17:05.396Z,962.15
2023-04-02T05:18:05.544Z,962.15
2023-04-02T05:19:05.326Z,962.14
2023-04-02T05:20:05.314Z,962.17
2023-04-02T05:21:05.299Z,962.16
2023-04-02T05:22:05.360Z,962.17
2023-04-02T05:23:05.295Z,962.16
2023-04-02T05:24:05.416Z,962.25
2023-04-02T05:25:05.278Z,962.22
2023-04-02T05:26:05.257Z,962.21
2023-04-02T05:27:05.234Z,962.22
2023-04-02T05:28:05.249Z,962.26
2023-04-02T05:29:05.283Z,962.28
2023-04-02T05:30:05.274Z,962.26
2023-04-02T05:31:05.301Z,962.27
2023-04-02T05:32:05.140Z,962.28
2023-04-02T05:33:05.439Z,962.32
2023-04-02T05:34:05.106Z,962.31
2023-04-02T05:35:05.166Z,962.30
2023-04-02T05:36:05.131Z,962.32
2023-04-02T05:37:06.922Z,962.32
2023-04-02T05:38:05.189Z,962.38
2023-04-02T05:39:05.070Z,962.32
2023-04-02T05:40:05.235Z,962.36
2023-04-02T05:41:05.058Z,962.39
2023-04-02T05:42:05.078Z,962.37
2023-04-02T05:43:05.054Z,962.40
2023-04-02T05:44:05.026Z,962.43
2023-04-02T05:45:05.141Z,962.46
2023-04-02T05:46:04.957Z,962.42
2023-04-02T05:47:05.129Z,962.42
2023-04-02T05:48:05.222Z,962.47
2023-04-02T05:49:05.301Z,962.51
2023-04-02T05:50:05.144Z,962.48
2023-04-02T05:51:05.211Z,962.50
2023-04-02T05:52:05.016Z,962.50
2023-04-02T05:53:05.172Z,962.52
2023-04-02T05:54:05.023Z,962.51
2023-04-02T05:55:05.072Z,962.53
2023-04-02T05:56:05.084Z,962.56
2023-04-02T05:57:05.207Z,962.53
2023-04-02T05:58:29.393Z,962.57
2023-04-02T05:59:04.959Z,962.58
2023-04-02T06:00:04.872Z,962.56
2023-04-02T06:01:04.858Z,962.60
2023-04-02T06:02:04.837Z,962.61
2023-04-02T06:03:04.854Z,962.59
2023-04-02T06:04:04.850Z,962.61
2023-04-02T06:05:04.827Z,962.57
2023-04-02T06:06:04.831Z,962.60
2023-04-02T06:07:04.843Z,962.62
2023-04-02T06:08:04.701Z,962.63
2023-04-02T06:09:04.875Z,962.64
2023-04-02T06:10:04.694Z,962.64
2023-04-02T06:11:04.840Z,962.64
2023-04-02T06:12:04.672Z,962.63
2023-04-02T06:13:04.663Z,962.66
2023-04-02T06:14:04.612Z,962.68
2023-04-02T06:15:04.648Z,962.74
2023-04-02T06:16:04.625Z,962.73
2023-04-02T06:17:04.732Z,962.72
2023-04-02T06:18:04.660Z,962.71
2023-04-02T06:19:04.719Z,962.70
2023-04-02T06:20:04.555Z,962.73
2023-04-02T06:21:04.702Z,962.74
2023-04-02T06:22:04.689Z,962.79
2023-04-02T06:23:04.558Z,962.81
2023-04-02T06:24:04.532Z,962.81
2023-04-02T06:25:04.514Z,962.85
2023-04-02T06:26:04.540Z,962.84
2023-04-02T06:27:04.573Z,962.79
2023-04-02T06:28:04.444Z,962.81
2023-04-02T06:29:04.598Z,962.82
2023-04-02T06:30:04.406Z,962.81
2023-04-02T06:31:04.753Z,962.82
2023-04-02T06:32:04.394Z,962.81
2023-04-02T06:33:04.640Z,962.84
2023-04-02T06:34:04.370Z,962.85
2023-04-02T06:35:04.446Z,962.88
2023-04-02T06:36:04.379Z,962.87
2023-04-02T06:37:04.408Z,962.88
2023-04-02T06:38:04.315Z,962.89
2023-04-02T06:39:04.526Z,962.90
2023-04-02T06:40:04.287Z,962.94
2023-04-02T06:41:04.430Z,962.93
2023-04-02T06:42:04.265Z,962.95
2023-04-02T06:43:04.374Z,962.97
2023-04-02T06:44:04.254Z,962.97
2023-04-02T06:45:04.316Z,962.98
2023-04-02T06:46:04.307Z,963.02
2023-04-02T06:47:04.267Z,963.03
2023-04-02T06:48:04.215Z,963.05
2023-04-02T06:49:04.251Z,963.06
2023-04-02T06:50:04.229Z,963.07
2023-04-02T06:51:04.232Z,963.10
2023-04-02T06:52:04.132Z,963.10
2023-04-02T06:53:04.215Z,963.10
2023-04-02T06:54:04.116Z,963.11
2023-04-02T06:55:04.324Z,963.11
2023-04-02T06:56:04.089Z,963.18
2023-04-02T06:57:04.286Z,963.17
2023-04-02T06:58:04.128Z,963.20
2023-04-02T06:59:04.642Z,963.17
2023-04-02T07:00:04.082Z,963.20
2023-04-02T07:01:04.053Z,963.20
2023-04-02T07:02:04.130Z,963.21
2023-04-02T07:03:04.177Z,963.24
2023-04-02T07:04:04.019Z,963.29
2023-04-02T07:05:04.203Z,963.29
2023-04-02T07:06:04.019Z,963.29
2023-04-02T07:07:03.991Z,963.35
2023-04-02T07:08:04.138Z,963.32
2023-04-02T07:09:04.014Z,963.33
2023-04-02T07:10:03.939Z,963.36
2023-04-02T07:11:03.968Z,963.37
2023-04-02T07:12:04.001Z,963.39
2023-04-02T07:13:03.896Z,963.39
2023-04-02T07:14:03.932Z,963.39
2023-04-02T07:15:03.881Z,963.42
2023-04-02T07:16:04.053Z,963.42
2023-04-02T07:17:03.969Z,963.41
2023-04-02T07:18:03.979Z,963.43
2023-04-02T07:19:03.882Z,963.48
2023-04-02T07:20:03.909Z,963.50
2023-04-02T07:21:03.998Z,963.50
2023-04-02T07:22:03.972Z,963.51
2023-04-02T07:23:03.903Z,963.51
2023-04-02T07:24:03.989Z,963.51
2023-04-02T07:25:03.759Z,963.54
2023-04-02T07:26:03.770Z,963.57
2023-04-02T07:27:03.744Z,963.59
2023-04-02T07:28:03.751Z,963.58
2023-04-02T07:29:03.722Z,963.61
2023-04-02T07:30:03.674Z,963.64
2023-04-02T07:31:03.691Z,963.59
2023-04-02T07:32:03.682Z,963.64
2023-04-02T07:33:03.794Z,963.64
2023-04-02T07:34:03.744Z,963.64
2023-04-02T07:35:03.753Z,963.65
2023-04-02T07:36:03.803Z,963.66
2023-04-02T07:37:03.684Z,963.68
2023-04-02T07:38:04.282Z,963.65
2023-04-02T07:39:04.011Z,963.69
2023-04-02T07:40:03.884Z,963.70
2023-04-02T07:41:03.643Z,963.70
2023-04-02T07:42:03.755Z,963.70
2023-04-02T07:43:03.550Z,963.74
2023-04-02T07:44:03.719Z,963.76
2023-04-02T07:45:05.905Z,963.79
2023-04-02T07:46:03.532Z,963.76
2023-04-02T07:47:03.686Z,963.81
2023-04-02T07:48:03.692Z,963.82
2023-04-02T07:49:03.601Z,963.79
2023-04-02T07:50:03.426Z,963.81
2023-04-02T07:51:03.566Z,963.83
2023-04-02T07:52:03.422Z,963.82
2023-04-02T07:53:03.615Z,963.85
2023-04-02T07:54:03.593Z,963.88
2023-04-02T07:55:03.402Z,963.86
2023-04-02T07:56:03.420Z,963.86
2023-04-02T07:57:03.423Z,963.90
2023-04-02T07:58:03.391Z,963.92
2023-04-02T07:59:03.343Z,963.92
2023-04-02T08:00:03.520Z,963.88
2023-04-02T08:01:03.294Z,963.92
2023-04-02T08:02:03.362Z,963.94
2023-04-02T08:03:03.461Z,963.95
2023-04-02T08:04:03.415Z,963.99
2023-04-02T08:05:03.254Z,963.96
2023-04-02T08:06:03.376Z,964.01
2023-04-02T08:07:03.212Z,963.98
2023-04-02T08:08:03.383Z,964.00
2023-04-02T08:09:03.235Z,964.04
2023-04-02T08:10:03.451Z,964.04
2023-04-02T08:11:03.194Z,964.03
2023-04-02T08:12:03.180Z,964.08
2023-04-02T08:13:03.121Z,964.11
2023-04-02T08:14:03.221Z,964.09
2023-04-02T08:15:03.306Z,964.09
2023-04-02T08:16:03.087Z,964.12
2023-04-02T08:17:03.332Z,964.15
2023-04-02T08:18:03.112Z,964.16
2023-04-02T08:19:03.237Z,964.21
2023-04-02T08:20:03.414Z,964.21
2023-04-02T08:21:03.118Z,964.24
2023-04-02T08:22:03.122Z,964.20
2023-04-02T08:23:02.982Z,964.24
2023-04-02T08:24:03.191Z,964.27
2023-04-02T08:25:03.086Z,964.32
2023-04-02T08:26:02.975Z,964.30
2023-04-02T08:27:03.028Z,964.34
2023-04-02T08:28:03.025Z,964.31
2023-04-02T08:29:03.016Z,964.35
2023-04-02T08:30:03.072Z,964.30
2023-04-02T08:31:02.956Z,964.36
2023-04-02T08:32:03.008Z,964.35
2023-04-02T08:33:02.917Z,964.34
2023-04-02T08:34:03.089Z,964.39
2023-04-02T08:35:03.066Z,964.43
2023-04-02T08:36:02.889Z,964.41
2023-04-02T08:37:02.916Z,964.45
2023-04-02T08:38:02.820Z,964.47
2023-04-02T08:39:02.874Z,964.47
2023-04-02T08:40:02.802Z,964.50
2023-04-02T08:41:03.108Z,964.51
2023-04-02T08:42:02.809Z,964.53
2023-04-02T08:43:02.855Z,964.56
2023-04-02T08:44:02.746Z,964.55
2023-04-02T08:45:10.851Z,964.58
2023-04-02T08:46:02.752Z,964.58
2023-04-02T08:47:02.846Z,964.59
2023-04-02T08:48:02.764Z,964.60
2023-04-02T08:49:02.737Z,964.60
2023-04-02T08:50:02.685Z,964.59
2023-04-02T08:51:02.957Z,964.59
2023-04-02T08:52:02.649Z,964.61
2023-04-02T08:53:02.759Z,964.64
2023-04-02T08:54:02.682Z,964.61
2023-04-02T08:55:02.882Z,964.63
2023-04-02T08:56:02.669Z,964.64
2023-04-02T08:57:02.702Z,964.69
2023-04-02T08:58:02.572Z,964.69
2023-04-02T08:59:02.587Z,964.72
2023-04-02T09:00:02.583Z,964.69
2023-04-02T09:01:02.626Z,964.70
2023-04-02T09:02:02.540Z,964.70
2023-04-02T09:03:02.703Z,964.69
2023-04-02T09:04:02.471Z,964.71
2023-04-02T09:05:02.714Z,964.67
2023-04-02T09:06:02.471Z,964.71
2023-04-02T09:07:02.653Z,964.68
2023-04-02T09:08:02.433Z,964.73
2023-04-02T09:09:02.456Z,964.71
2023-04-02T09:10:02.468Z,964.73
2023-04-02T09:11:02.502Z,964.73
2023-04-02T09:12:02.371Z,964.79
2023-04-02T09:13:02.535Z,964.77
2023-04-02T09:14:02.365Z,964.76
2023-04-02T09:15:02.552Z,964.77
2023-04-02T09:16:02.554Z,964.73
2023-04-02T09:17:02.312Z,964.77
2023-04-02T09:18:02.459Z,964.79
2023-04-02T09:19:02.281Z,964.82
2023-04-02T09:20:02.527Z,964.83
2023-04-02T09:21:02.272Z,964.81
2023-04-02T09:22:02.359Z,964.81
2023-04-02T09:23:02.220Z,964.89
2023-04-02T09:24:03.981Z,964.90
2023-04-02T09:25:02.202Z,964.91
2023-04-02T09:26:04.442Z,964.96
2023-04-02T09:27:02.176Z,964.96
2023-04-02T09:28:02.423Z,964.95
2023-04-02T09:29:02.349Z,964.98
2023-04-02T09:30:02.222Z,964.97
2023-04-02T09:31:02.166Z,964.93
2023-04-02T09:32:02.657Z,964.94
2023-04-02T09:33:02.697Z,964.96
2023-04-02T09:34:02.746Z,964.95
2023-04-02T09:35:04.194Z,965.00
2023-04-02T09:36:02.298Z,964.98
2023-04-02T09:37:02.796Z,965.00
2023-04-02T09:38:03.269Z,965.02
2023-04-02T09:39:02.674Z,965.01
2023-04-02T09:40:02.444Z,965.06
2023-04-02T09:41:03.468Z,965.05
2023-04-02T09:42:05.538Z,965.10
2023-04-02T09:43:02.704Z,965.12
2023-04-02T09:44:02.359Z,965.17
2023-04-02T09:45:02.260Z,965.13
2023-04-02T09:46:01.947Z,965.18
2023-04-02T09:47:02.173Z,965.20
2023-04-02T09:48:02.014Z,965.17
2023-04-02T09:49:02.576Z,965.17
2023-04-02T09:50:01.907Z,965.17
2023-04-02T09:51:01.946Z,965.19
2023-04-02T09:52:01.956Z,965.20
2023-04-02T09:53:01.920Z,965.17
2023-04-02T09:54:01.971Z,965.20
2023-04-02T09:55:01.823Z,965.21
2023-04-02T09:56:01.973Z,965.22
2023-04-02T09:57:01.854Z,965.23
2023-04-02T09:58:02.198Z,965.20
2023-04-02T09:59:01.763Z,965.25
2023-04-02T10:00:01.907Z,965.28
2023-04-02T10:01:01.771Z,965.27
2023-04-02T10:02:01.862Z,965.27
2023-04-02T10:03:01.830Z,965.32
2023-04-02T10:04:01.850Z,965.32
2023-04-02T10:05:01.729Z,965.33
2023-04-02T10:06:01.739Z,965.36
2023-04-02T10:07:01.669Z,965.34
2023-04-02T10:08:01.874Z,965.37
2023-04-02T10:09:02.170Z,965.39
2023-04-02T10:10:02.019Z,965.42
2023-04-02T10:11:02.109Z,965.44
2023-04-02T10:12:01.994Z,965.46
2023-04-02T10:13:01.924Z,965.48
2023-04-02T10:14:01.598Z,965.47
2023-04-02T10:15:01.677Z,965.47
2023-04-02T10:16:01.672Z,965.50
2023-04-02T10:17:01.664Z,965.45
2023-04-02T10:18:01.771Z,965.47
2023-04-02T10:19:01.524Z,965.50
2023-04-02T10:20:01.656Z,965.52
2023-04-02T10:21:01.503Z,965.56
2023-04-02T10:22:01.569Z,965.51
2023-04-02T10:23:02.577Z,965.56
2023-04-02T10:24:01.473Z,965.56
2023-04-02T10:25:01.572Z,965.59
2023-04-02T10:26:01.485Z,965.57
2023-04-02T10:27:01.469Z,965.62
2023-04-02T10:28:01.500Z,965.64
2023-04-02T10:29:01.522Z,965.60
2023-04-02T10:30:01.420Z,965.64
2023-04-02T10:31:01.555Z,965.62
2023-04-02T10:32:01.627Z,965.62
2023-04-02T10:33:01.444Z,965.63
2023-04-02T10:34:01.399Z,965.65
2023-04-02T10:35:01.471Z,965.66
2023-04-02T10:36:01.349Z,965.62
2023-04-02T10:37:01.445Z,965.60
2023-04-02T10:38:01.359Z,965.62
2023-04-02T10:39:01.284Z,965.63
2023-04-02T10:40:01.452Z,965.64
2023-04-02T10:41:01.270Z,965.63
2023-04-02T10:42:01.412Z,965.64
2023-04-02T10:43:01.331Z,965.68
2023-04-02T10:44:12.595Z,965.70
2023-04-02T10:45:01.256Z,965.69
2023-04-02T10:46:01.306Z,965.71
2023-04-02T10:47:01.177Z,965.69
2023-04-02T10:48:01.558Z,965.68
2023-04-02T10:49:01.829Z,965.73
2023-04-02T10:50:01.623Z,965.72
2023-04-02T10:51:01.239Z,965.67
2023-04-02T10:52:02.046Z,965.71
2023-04-02T10:53:01.445Z,965.71
2023-04-02T10:54:01.714Z,965.72
2023-04-02T10:55:02.347Z,965.73
2023-04-02T10:56:01.196Z,965.76
2023-04-02T10:57:01.153Z,965.77
2023-04-02T10:58:01.203Z,965.81
2023-04-02T10:59:01.010Z,965.81
2023-04-02T11:00:01.221Z,965.81
2023-04-02T11:01:01.000Z,965.80
2023-04-02T11:02:01.156Z,965.79
2023-04-02T11:03:01.050Z,965.79
2023-04-02T11:04:01.079Z,965.79
2023-04-02T11:05:01.978Z,965.84
2023-04-02T11:06:01.802Z,965.81
2023-04-02T11:07:13.191Z,965.83
2023-04-02T11:08:01.028Z,965.85
2023-04-02T11:09:00.998Z,965.83
2023-04-02T11:10:01.019Z,965.84
2023-04-02T11:11:02.808Z,965.86
2023-04-02T11:13:01.404Z,965.85
2023-04-02T11:14:02.201Z,965.88
2023-04-02T11:15:02.105Z,965.84
2023-04-02T11:16:02.164Z,965.86
2023-04-02T11:17:02.009Z,965.87
2023-04-02T11:18:02.121Z,965.85
2023-04-02T11:19:02.116Z,965.86
2023-04-02T11:20:02.014Z,965.88
2023-04-02T11:21:02.131Z,965.86
2023-04-02T11:22:03.767Z,965.90
2023-04-02T11:23:01.964Z,965.89
2023-04-02T11:24:02.853Z,965.90
2023-04-02T11:25:02.006Z,965.89
2023-04-02T11:26:01.969Z,965.94
2023-04-02T11:27:01.983Z,965.92
2023-04-02T11:28:01.903Z,965.94
2023-04-02T11:29:02.010Z,965.94
2023-04-02T11:30:01.913Z,965.93
2023-04-02T11:31:01.936Z,965.96
2023-04-02T11:32:01.838Z,965.97
2023-04-02T11:33:02.293Z,965.99
2023-04-02T11:34:01.798Z,965.98
2023-04-02T11:35:07.203Z,965.94
2023-04-02T11:36:01.910Z,965.95
2023-04-02T11:37:01.896Z,965.95
2023-04-02T11:38:01.854Z,965.96
2023-04-02T11:39:14.682Z,965.96
2023-04-02T11:40:01.999Z,965.96
2023-04-02T11:41:01.917Z,965.97
2023-04-02T11:42:01.825Z,965.99
2023-04-02T11:43:01.999Z,965.99
2023-04-02T11:44:01.693Z,966.00
2023-04-02T11:45:01.747Z,966.03
2023-04-02T11:46:01.745Z,966.02
2023-04-02T11:47:01.849Z,966.05
2023-04-02T11:48:02.073Z,966.02
2023-04-02T11:49:01.723Z,966.00
2023-04-02T11:50:01.648Z,966.00
2023-04-02T11:51:01.593Z,966.00
2023-04-02T11:52:11.401Z,966.03
2023-04-02T11:53:01.622Z,966.01
2023-04-02T11:54:01.775Z,966.02
2023-04-02T11:55:01.677Z,966.03
2023-04-02T11:56:01.588Z,966.04
2023-04-02T11:57:01.620Z,966.04
2023-04-02T11:58:01.593Z,966.01
2023-04-02T11:59:01.569Z,966.06
2023-04-02T12:00:01.678Z,966.04
2023-04-02T12:01:01.634Z,966.07
2023-04-02T12:02:01.642Z,966.08
2023-04-02T12:03:01.478Z,966.07
2023-04-02T12:04:01.606Z,966.12
2023-04-02T12:05:01.457Z,966.10
2023-04-02T12:06:03.685Z,966.11
2023-04-02T12:07:01.362Z,966.12
2023-04-02T12:08:01.450Z,966.15
2023-04-02T12:09:01.437Z,966.14
2023-04-02T12:10:01.508Z,966.15
2023-04-02T12:11:01.309Z,966.16
2023-04-02T12:12:01.415Z,966.16
2023-04-02T12:13:01.320Z,966.16
2023-04-02T12:14:01.533Z,966.16
2023-04-02T12:15:01.266Z,966.19
2023-04-02T12:16:01.341Z,966.20
2023-04-02T12:17:01.260Z,966.21
2023-04-02T12:18:01.371Z,966.25
2023-04-02T12:19:01.267Z,966.27
2023-04-02T12:20:03.172Z,966.30
2023-04-02T12:21:01.205Z,966.31
2023-04-02T12:22:01.409Z,966.33
2023-04-02T12:23:01.248Z,966.33
2023-04-02T12:24:01.274Z,966.33
2023-04-02T12:25:01.182Z,966.35
2023-04-02T12:26:01.193Z,966.35
2023-04-02T12:27:01.113Z,966.38
2023-04-02T12:28:01.276Z,966.35
2023-04-02T12:29:01.120Z,966.35